Time;durP1;ratioP1;P1;durP2;ratioP2;P2;SDS_P1;SDS_P2;PMS_P1;PMS_P2;Temp;Humidity;BMP_temperature;BMP_pressure;BME280_temperature;BME280_humidity;BME280_pressure;Samples;Min_cycle;Max_cycle;Signal;HPM_P1;HPM_P2
2023/07/19 00:00:02;;;;;;;;;;;23.20;49.70;;;;;;5070218;28;19936;-56
2023/07/19 00:02:29;;;;;;;;;;;23.20;49.70;;;;;;5069506;28;19931;-54
2023/07/19 00:04:56;;;;;;;;;;;23.20;49.70;;;;;;5069598;28;19936;-54
2023/07/19 00:07:23;;;;;;;;;;;23.20;49.70;;;;;;5070049;28;19924;-56
2023/07/19 00:09:51;;;;;;;;;;;23.20;49.70;;;;;;5069476;28;19925;-54
2023/07/19 00:12:18;;;;;;;;;;;23.20;49.70;;;;;;5070328;28;19924;-57
2023/07/19 00:14:44;;;;;;;;;;;23.20;49.70;;;;;;5069043;28;19924;-55
2023/07/19 00:17:11;;;;;;;;;;;23.20;49.70;;;;;;5069123;28;20471;-55
2023/07/19 00:19:39;;;;;;;;;;;23.20;49.80;;;;;;5069366;28;19925;-55
2023/07/19 00:22:06;;;;;;;;;;;23.20;49.80;;;;;;5069005;28;19928;-56
2023/07/19 00:24:33;;;;;;;;;;;23.20;50.40;;;;;;5102609;28;19929;-56
2023/07/19 00:27:01;;;;;;;;;;;23.20;49.80;;;;;;5074925;28;19930;-56
2023/07/19 00:29:28;;;;;;;;;;;23.20;49.80;;;;;;5074700;28;20019;-56
2023/07/19 00:31:55;;;;;;;;;;;23.20;49.80;;;;;;5084845;28;20016;-56
2023/07/19 00:34:22;;;;;;;;;;;23.20;49.80;;;;;;5079996;28;19929;-51
2023/07/19 00:36:48;;;;;;;;;;;23.20;49.80;;;;;;5070564;28;19928;-56
2023/07/19 00:39:15;;;;;;;;;;;23.20;49.80;;;;;;5073529;28;19924;-56
2023/07/19 00:41:42;;;;;;;;;;;23.20;49.80;;;;;;5070327;28;19928;-56
2023/07/19 00:44:10;;;;;;;;;;;23.20;49.80;;;;;;5105069;28;19950;-54
2023/07/19 00:46:37;;;;;;;;;;;23.20;49.90;;;;;;5072074;28;19932;-55
2023/07/19 00:49:03;;;;;;;;;;;23.20;49.90;;;;;;5072506;28;19925;-56
2023/07/19 00:51:30;;;;;;;;;;;23.20;49.90;;;;;;5102459;28;20397;-55
2023/07/19 00:53:57;;;;;;;;;;;23.20;49.90;;;;;;5072850;28;19947;-54
2023/07/19 00:56:24;;;;;;;;;;;23.20;49.90;;;;;;5070285;28;19924;-56
2023/07/19 00:58:51;;;;;;;;;;;23.20;49.90;;;;;;5072546;28;19928;-56
2023/07/19 01:01:19;;;;;;;;;;;23.20;49.90;;;;;;5070286;28;19925;-55
2023/07/19 01:03:46;;;;;;;;;;;23.20;49.90;;;;;;5069430;28;19924;-56
2023/07/19 01:06:13;;;;;;;;;;;23.20;50.00;;;;;;5069025;28;19931;-54
2023/07/19 01:08:40;;;;;;;;;;;23.20;50.00;;;;;;5068610;28;19925;-54
2023/07/19 01:11:06;;;;;;;;;;;23.20;50.00;;;;;;5074216;28;19929;-55
2023/07/19 01:13:33;;;;;;;;;;;23.20;50.00;;;;;;5069767;28;19970;-53
2023/07/19 01:16:00;;;;;;;;;;;23.20;50.00;;;;;;5086797;28;19924;-55
2023/07/19 01:18:28;;;;;;;;;;;23.20;50.00;;;;;;5102493;28;19932;-55
2023/07/19 01:20:55;;;;;;;;;;;23.20;50.00;;;;;;5069374;28;19924;-55
2023/07/19 01:23:23;;;;;;;;;;;23.20;50.00;;;;;;5068855;28;19931;-54
2023/07/19 01:25:50;;;;;;;;;;;23.20;50.00;;;;;;5102429;28;20028;-54
2023/07/19 01:28:20;;;;;;;;;;;23.20;50.10;;;;;;5086354;28;19928;-53
2023/07/19 01:30:46;;;;;;;;;;;23.20;50.10;;;;;;5081471;28;19924;-54
2023/07/19 01:33:13;;;;;;;;;;;23.20;50.10;;;;;;5073599;28;19982;-55
2023/07/19 01:35:40;;;;;;;;;;;23.20;50.10;;;;;;5085642;28;20327;-55
2023/07/19 01:38:07;;;;;;;;;;;23.20;50.10;;;;;;5073631;28;19985;-54
2023/07/19 01:40:36;;;;;;;;;;;23.20;50.10;;;;;;5087116;28;19946;-56
2023/07/19 01:43:02;;;;;;;;;;;23.10;50.00;;;;;;5077312;28;19964;-55
2023/07/19 01:45:29;;;;;;;;;;;23.20;50.10;;;;;;5078143;28;19986;-56
2023/07/19 01:47:56;;;;;;;;;;;23.20;50.10;;;;;;5107081;28;19925;-55
2023/07/19 01:50:23;;;;;;;;;;;23.10;50.00;;;;;;5078125;28;19977;-55
2023/07/19 01:52:49;;;;;;;;;;;23.20;50.10;;;;;;5074522;28;19928;-53
2023/07/19 01:55:16;;;;;;;;;;;23.10;50.00;;;;;;5073271;28;19924;-53
2023/07/19 01:57:44;;;;;;;;;;;23.20;50.10;;;;;;5075903;28;19924;-54
2023/07/19 02:00:12;;;;;;;;;;;23.20;50.20;;;;;;5071726;28;19931;-54
2023/07/19 02:02:38;;;;;;;;;;;23.10;50.10;;;;;;5077858;28;20392;-56
2023/07/19 02:05:05;;;;;;;;;;;23.20;50.20;;;;;;5072137;28;19980;-55
2023/07/19 02:07:32;;;;;;;;;;;23.20;50.20;;;;;;5072946;28;20006;-55
2023/07/19 02:09:59;;;;;;;;;;;23.10;50.10;;;;;;5083307;28;19924;-53
2023/07/19 02:12:26;;;;;;;;;;;23.20;50.20;;;;;;5071204;28;19925;-56
2023/07/19 02:14:55;;;;;;;;;;;23.10;50.10;;;;;;5104658;28;19925;-55
2023/07/19 02:17:22;;;;;;;;;;;23.10;50.10;;;;;;5070398;28;20392;-55
2023/07/19 02:19:49;;;;;;;;;;;23.10;50.10;;;;;;5106107;28;20398;-56
2023/07/19 02:22:16;;;;;;;;;;;23.10;50.10;;;;;;5071261;28;19970;-56
2023/07/19 02:24:43;;;;;;;;;;;23.10;50.10;;;;;;5078687;28;19924;-55
2023/07/19 02:27:10;;;;;;;;;;;23.10;50.00;;;;;;5072699;28;19928;-56
2023/07/19 02:29:36;;;;;;;;;;;23.10;50.00;;;;;;5071909;28;19925;-56
2023/07/19 02:32:05;;;;;;;;;;;23.10;50.00;;;;;;5078062;28;19924;-55
2023/07/19 02:34:31;;;;;;;;;;;23.10;50.00;;;;;;5075122;28;19947;-56
2023/07/19 02:36:58;;;;;;;;;;;23.10;50.00;;;;;;5072893;28;19932;-54
2023/07/19 02:39:27;;;;;;;;;;;23.10;50.00;;;;;;5105874;28;20018;-55
2023/07/19 02:41:54;;;;;;;;;;;23.10;49.90;;;;;;5097510;28;20063;-55
2023/07/19 02:44:21;;;;;;;;;;;23.10;50.00;;;;;;5067489;28;19928;-55
2023/07/19 02:46:48;;;;;;;;;;;23.10;49.90;;;;;;5076446;28;19963;-54
2023/07/19 02:49:16;;;;;;;;;;;23.00;49.80;;;;;;5071619;28;19978;-54
2023/07/19 02:51:43;;;;;;;;;;;23.10;49.90;;;;;;5073763;28;19925;-55
2023/07/19 02:54:10;;;;;;;;;;;23.10;49.80;;;;;;5105957;28;19928;-55
2023/07/19 02:56:37;;;;;;;;;;;23.00;49.60;;;;;;5073980;28;19926;-52
2023/07/19 02:59:04;;;;;;;;;;;23.10;49.60;;;;;;5076346;28;19986;-54
2023/07/19 03:01:31;;;;;;;;;;;23.10;49.60;;;;;;5076496;28;20400;-55
2023/07/19 03:03:59;;;;;;;;;;;23.10;49.60;;;;;;5076221;28;19928;-54
2023/07/19 03:06:27;;;;;;;;;;;23.10;49.50;;;;;;5069045;28;19925;-53
2023/07/19 03:08:54;;;;;;;;;;;23.00;49.40;;;;;;5073063;28;19924;-52
2023/07/19 03:11:21;;;;;;;;;;;23.00;49.40;;;;;;5073851;28;19924;-53
2023/07/19 03:13:48;;;;;;;;;;;23.00;49.40;;;;;;5071649;28;19932;-54
2023/07/19 03:16:15;;;;;;;;;;;23.00;49.40;;;;;;5075511;28;19946;-55
2023/07/19 03:18:42;;;;;;;;;;;23.00;50.00;;;;;;5091580;28;19924;-54
2023/07/19 03:21:08;;;;;;;;;;;23.00;49.50;;;;;;5072927;28;19948;-56
2023/07/19 03:23:36;;;;;;;;;;;23.00;49.50;;;;;;5105120;28;19947;-51
2023/07/19 03:26:03;;;;;;;;;;;23.00;49.50;;;;;;5089762;28;19928;-56
2023/07/19 03:28:31;;;;;;;;;;;23.00;49.50;;;;;;5100446;28;19996;-54
2023/07/19 03:30:58;;;;;;;;;;;23.00;49.50;;;;;;5078652;28;19932;-56
2023/07/19 03:33:25;;;;;;;;;;;23.00;49.60;;;;;;5084786;28;19925;-54
2023/07/19 03:35:52;;;;;;;;;;;23.00;49.50;;;;;;5071231;28;19924;-54
2023/07/19 03:38:19;;;;;;;;;;;23.00;49.60;;;;;;5068205;28;19929;-53
2023/07/19 03:40:47;;;;;;;;;;;23.00;49.60;;;;;;5071030;28;19974;-52
2023/07/19 03:43:13;;;;;;;;;;;23.00;49.60;;;;;;5072227;28;19924;-55
2023/07/19 03:45:40;;;;;;;;;;;23.00;49.60;;;;;;5071731;28;19924;-55
2023/07/19 03:48:07;;;;;;;;;;;23.00;49.60;;;;;;5089855;28;19946;-55
2023/07/19 03:50:34;;;;;;;;;;;23.00;49.60;;;;;;5071646;28;19928;-56
2023/07/19 03:53:01;;;;;;;;;;;23.00;49.60;;;;;;5075733;28;19974;-52
2023/07/19 03:55:28;;;;;;;;;;;23.00;49.60;;;;;;5072492;28;19924;-55
2023/07/19 03:57:56;;;;;;;;;;;23.00;49.60;;;;;;5071943;28;19931;-55
2023/07/19 04:00:23;;;;;;;;;;;23.00;49.60;;;;;;5075689;28;19924;-55
2023/07/19 04:02:50;;;;;;;;;;;23.00;49.60;;;;;;5072057;28;19932;-56
2023/07/19 04:05:17;;;;;;;;;;;23.00;49.60;;;;;;5073855;28;19924;-55
2023/07/19 04:07:43;;;;;;;;;;;23.00;49.60;;;;;;5088981;28;20039;-55
2023/07/19 04:10:10;;;;;;;;;;;23.00;49.60;;;;;;5088762;28;20322;-55
2023/07/19 04:12:37;;;;;;;;;;;23.00;49.60;;;;;;5080913;28;19932;-54
2023/07/19 04:15:06;;;;;;;;;;;23.00;49.60;;;;;;5076352;28;19924;-55
2023/07/19 04:17:32;;;;;;;;;;;23.00;49.60;;;;;;5089972;28;19925;-56
2023/07/19 04:19:59;;;;;;;;;;;23.00;49.60;;;;;;5070192;28;19940;-55
2023/07/19 04:22:26;;;;;;;;;;;23.00;49.50;;;;;;5072646;28;19931;-56
2023/07/19 04:24:54;;;;;;;;;;;23.00;49.50;;;;;;5104387;28;20023;-55
2023/07/19 04:27:21;;;;;;;;;;;23.00;49.50;;;;;;5077419;28;19953;-56
2023/07/19 04:29:48;;;;;;;;;;;23.00;49.50;;;;;;5103968;28;19931;-56
2023/07/19 04:32:16;;;;;;;;;;;23.00;49.50;;;;;;5077525;28;19924;-55
2023/07/19 04:34:43;;;;;;;;;;;23.00;49.40;;;;;;5072964;28;19925;-55
2023/07/19 04:37:10;;;;;;;;;;;23.00;49.40;;;;;;5073782;28;19930;-56
2023/07/19 04:39:36;;;;;;;;;;;23.00;49.70;;;;;;5102852;28;19924;-57
2023/07/19 04:42:03;;;;;;;;;;;23.00;49.30;;;;;;5071092;28;19977;-57
2023/07/19 04:44:30;;;;;;;;;;;23.00;49.30;;;;;;5071621;28;19924;-56
2023/07/19 04:46:57;;;;;;;;;;;23.00;49.30;;;;;;5073723;28;19928;-57
2023/07/19 04:49:26;;;;;;;;;;;23.00;49.30;;;;;;5071763;28;19928;-56
2023/07/19 04:51:53;;;;;;;;;;;23.00;49.30;;;;;;5071676;28;19936;-55
2023/07/19 04:54:20;;;;;;;;;;;23.00;49.30;;;;;;5073118;28;19932;-56
2023/07/19 04:56:46;;;;;;;;;;;23.00;49.30;;;;;;5102355;28;19924;-57
2023/07/19 04:59:13;;;;;;;;;;;23.00;49.30;;;;;;5070713;28;20041;-55
2023/07/19 05:01:40;;;;;;;;;;;23.00;49.30;;;;;;5067521;28;20011;-55
2023/07/19 05:04:07;;;;;;;;;;;23.00;49.30;;;;;;5068693;28;19939;-54
2023/07/19 05:06:35;;;;;;;;;;;23.00;49.30;;;;;;5085158;28;19931;-56
2023/07/19 05:09:03;;;;;;;;;;;22.90;49.20;;;;;;5074392;28;19932;-56
2023/07/19 05:11:30;;;;;;;;;;;22.90;49.20;;;;;;5069369;28;19940;-56
2023/07/19 05:13:57;;;;;;;;;;;23.00;49.30;;;;;;5086755;28;19978;-55
2023/07/19 05:16:23;;;;;;;;;;;22.90;49.20;;;;;;5066821;28;20022;-56
2023/07/19 05:18:50;;;;;;;;;;;22.90;49.30;;;;;;5084784;28;19920;-56
2023/07/19 05:21:17;;;;;;;;;;;23.00;49.30;;;;;;5101534;28;19935;-56
2023/07/19 05:23:45;;;;;;;;;;;22.90;49.30;;;;;;5070841;28;20462;-54
2023/07/19 05:26:12;;;;;;;;;;;22.90;49.30;;;;;;5068964;28;19971;-56
2023/07/19 05:28:39;;;;;;;;;;;22.90;49.30;;;;;;5068435;28;19932;-56
2023/07/19 05:31:08;;;;;;;;;;;22.90;49.40;;;;;;5070116;28;19932;-54
2023/07/19 05:33:34;;;;;;;;;;;22.90;49.40;;;;;;5067260;28;19972;-54
2023/07/19 05:36:01;;;;;;;;;;;22.90;49.40;;;;;;5072483;28;20020;-54
2023/07/19 05:38:28;;;;;;;;;;;22.90;49.40;;;;;;5072142;28;19936;-55
2023/07/19 05:41:00;;;;;;;;;;;22.90;49.40;;;;;;5071283;28;19944;-54
2023/07/19 05:43:27;;;;;;;;;;;22.90;49.40;;;;;;5068600;28;20284;-55
2023/07/19 05:45:54;;;;;;;;;;;22.90;49.40;;;;;;5070941;28;19924;-54
2023/07/19 05:48:21;;;;;;;;;;;22.90;49.40;;;;;;5068701;28;19928;-55
2023/07/19 05:50:48;;;;;;;;;;;22.90;49.40;;;;;;5071936;28;19928;-56
2023/07/19 05:53:14;;;;;;;;;;;22.90;49.40;;;;;;5085148;28;19931;-52
2023/07/19 05:55:41;;;;;;;;;;;22.90;49.50;;;;;;5071364;28;19932;-55
2023/07/19 05:58:09;;;;;;;;;;;22.90;49.50;;;;;;5073865;28;19924;-55
2023/07/19 06:00:36;;;;;;;;;;;22.90;49.50;;;;;;5071687;28;19925;-55
2023/07/19 06:03:04;;;;;;;;;;;22.90;49.50;;;;;;5069792;28;19924;-56
2023/07/19 06:05:30;;;;;;;;;;;22.90;49.60;;;;;;5068812;28;20111;-56
2023/07/19 06:07:57;;;;;;;;;;;22.90;49.50;;;;;;5069519;28;20409;-55
2023/07/19 06:10:24;;;;;;;;;;;22.90;49.50;;;;;;5069915;28;19932;-54
2023/07/19 06:12:51;;;;;;;;;;;22.90;49.50;;;;;;5101336;28;19977;-55
2023/07/19 06:15:19;;;;;;;;;;;22.90;49.60;;;;;;5073868;28;19924;-55
2023/07/19 06:17:46;;;;;;;;;;;22.90;49.60;;;;;;5076733;28;20416;-55
2023/07/19 06:20:13;;;;;;;;;;;22.90;49.60;;;;;;5091574;28;19959;-55
2023/07/19 06:22:40;;;;;;;;;;;22.90;49.60;;;;;;5100239;28;19978;-55
2023/07/19 06:25:07;;;;;;;;;;;22.90;49.50;;;;;;5106073;28;19943;-55
2023/07/19 06:27:34;;;;;;;;;;;22.90;49.50;;;;;;5076129;28;19924;-55
2023/07/19 06:30:01;;;;;;;;;;;22.90;49.50;;;;;;5075739;28;19932;-54
2023/07/19 06:32:30;;;;;;;;;;;22.90;49.50;;;;;;5078469;28;19924;-54
2023/07/19 06:34:56;;;;;;;;;;;22.90;49.50;;;;;;5070255;28;19938;-57
2023/07/19 06:37:23;;;;;;;;;;;22.90;49.50;;;;;;5067955;28;19932;-57
2023/07/19 06:39:50;;;;;;;;;;;22.90;49.50;;;;;;5077179;28;19955;-56
2023/07/19 06:42:17;;;;;;;;;;;22.90;49.40;;;;;;5077814;28;19924;-58
2023/07/19 06:44:43;;;;;;;;;;;22.90;49.40;;;;;;5076721;28;19970;-58
2023/07/19 06:47:10;;;;;;;;;;;22.90;49.40;;;;;;5079123;28;19935;-56
2023/07/19 06:49:38;;;;;;;;;;;22.90;49.40;;;;;;5074245;28;19935;-55
2023/07/19 06:52:05;;;;;;;;;;;22.90;49.40;;;;;;5101450;28;20006;-56
2023/07/19 06:54:32;;;;;;;;;;;22.90;49.30;;;;;;5072936;28;19931;-54
2023/07/19 06:56:59;;;;;;;;;;;22.90;49.30;;;;;;5072098;28;19928;-56
2023/07/19 06:59:26;;;;;;;;;;;22.90;49.30;;;;;;5082832;28;19931;-56
2023/07/19 07:01:52;;;;;;;;;;;22.90;49.80;;;;;;5087278;28;20462;-56
2023/07/19 07:04:19;;;;;;;;;;;22.90;49.20;;;;;;5071764;28;19928;-56
2023/07/19 07:06:47;;;;;;;;;;;22.90;49.20;;;;;;5073289;28;19932;-55
2023/07/19 07:09:15;;;;;;;;;;;22.90;49.20;;;;;;5078775;28;19925;-54
2023/07/19 07:11:41;;;;;;;;;;;22.90;49.20;;;;;;5069615;28;19956;-54
2023/07/19 07:14:10;;;;;;;;;;;22.90;49.20;;;;;;5075706;28;19981;-53
2023/07/19 07:16:36;;;;;;;;;;;22.90;49.20;;;;;;5073460;28;19925;-52
2023/07/19 07:19:04;;;;;;;;;;;22.90;49.20;;;;;;5072679;28;20126;-54
2023/07/19 07:21:31;;;;;;;;;;;22.90;49.20;;;;;;5071771;28;20001;-53
2023/07/19 07:23:59;;;;;;;;;;;22.90;49.30;;;;;;5073993;28;19927;-53
2023/07/19 07:26:26;;;;;;;;;;;22.90;49.40;;;;;;5075056;28;19932;-55
2023/07/19 07:28:53;;;;;;;;;;;22.90;49.40;;;;;;5069593;28;19985;-56
2023/07/19 07:31:20;;;;;;;;;;;22.90;49.50;;;;;;5071968;28;19995;-57
2023/07/19 07:33:46;;;;;;;;;;;22.90;49.60;;;;;;5072879;28;19936;-55
2023/07/19 07:36:13;;;;;;;;;;;22.90;49.60;;;;;;5073847;28;19924;-57
2023/07/19 07:38:40;;;;;;;;;;;22.90;49.50;;;;;;5101574;28;20019;-55
2023/07/19 07:41:11;;;;;;;;;;;22.90;49.40;;;;;;5075887;28;19933;-57
2023/07/19 07:43:38;;;;;;;;;;;22.90;49.50;;;;;;5072133;28;19925;-57
2023/07/19 07:46:04;;;;;;;;;;;22.90;49.50;;;;;;5073459;28;20012;-58
2023/07/19 07:48:32;;;;;;;;;;;22.90;49.50;;;;;;5079218;28;19928;-57
2023/07/19 07:50:59;;;;;;;;;;;22.90;49.40;;;;;;5071982;28;19932;-57
2023/07/19 07:53:25;;;;;;;;;;;22.80;49.30;;;;;;5079485;28;19954;-57
2023/07/19 07:55:53;;;;;;;;;;;22.90;49.40;;;;;;5068060;28;19932;-58
2023/07/19 07:58:21;;;;;;;;;;;22.80;49.30;;;;;;5101941;28;20354;-58
2023/07/19 08:00:48;;;;;;;;;;;22.90;49.40;;;;;;5070580;28;19925;-57
2023/07/19 08:03:15;;;;;;;;;;;22.90;49.50;;;;;;5070756;28;19928;-56
2023/07/19 08:05:41;;;;;;;;;;;22.90;49.40;;;;;;5078756;28;19928;-55
2023/07/19 08:08:08;;;;;;;;;;;22.90;49.40;;;;;;5070218;28;19932;-55
2023/07/19 08:10:37;;;;;;;;;;;22.90;49.50;;;;;;5068639;28;19924;-56
2023/07/19 08:13:03;;;;;;;;;;;22.90;49.50;;;;;;5074405;28;19955;-56
2023/07/19 08:15:31;;;;;;;;;;;22.90;49.50;;;;;;5068720;28;19929;-57
2023/07/19 08:17:58;;;;;;;;;;;22.90;49.40;;;;;;5067681;28;19925;-57
2023/07/19 08:20:25;;;;;;;;;;;22.90;49.40;;;;;;5087926;28;20788;-57
2023/07/19 08:22:52;;;;;;;;;;;22.90;49.50;;;;;;5070184;28;19928;-56
2023/07/19 08:25:19;;;;;;;;;;;22.90;49.50;;;;;;5072042;28;19924;-57
2023/07/19 08:27:46;;;;;;;;;;;22.90;49.40;;;;;;5073603;28;19947;-55
2023/07/19 08:30:15;;;;;;;;;;;22.90;49.40;;;;;;5073143;28;20322;-57
2023/07/19 08:32:45;;;;;;;;;;;22.90;49.30;;;;;;5069296;28;19929;-57
2023/07/19 08:35:12;;;;;;;;;;;22.90;49.30;;;;;;5065735;28;19928;-56
2023/07/19 08:37:39;;;;;;;;;;;22.90;49.20;;;;;;5070912;28;20443;-56
2023/07/19 08:40:07;;;;;;;;;;;22.90;49.20;;;;;;5079074;28;19936;-56
2023/07/19 08:42:34;;;;;;;;;;;22.90;49.20;;;;;;5081422;28;20011;-56
2023/07/19 08:45:00;;;;;;;;;;;22.90;49.10;;;;;;5070629;28;19932;-56
2023/07/19 08:47:27;;;;;;;;;;;22.80;49.00;;;;;;5067085;28;19924;-55
2023/07/19 08:49:55;;;;;;;;;;;22.90;49.00;;;;;;5070883;28;20495;-56
2023/07/19 08:52:22;;;;;;;;;;;22.90;49.00;;;;;;5069663;28;19939;-56
2023/07/19 08:54:49;;;;;;;;;;;22.90;48.90;;;;;;5083955;28;19932;-56
2023/07/19 08:57:16;;;;;;;;;;;22.90;48.80;;;;;;5069427;28;19970;-55
2023/07/19 08:59:42;;;;;;;;;;;22.90;48.70;;;;;;5067782;28;19933;-56
2023/07/19 09:02:09;;;;;;;;;;;22.80;48.50;;;;;;5069741;28;19925;-56
2023/07/19 09:04:36;;;;;;;;;;;22.80;48.50;;;;;;5067409;28;19974;-56
2023/07/19 09:07:05;;;;;;;;;;;22.80;48.50;;;;;;5068533;28;19951;-56
2023/07/19 09:09:31;;;;;;;;;;;22.80;48.50;;;;;;5068398;28;20369;-57
2023/07/19 09:11:58;;;;;;;;;;;22.80;48.50;;;;;;5071291;28;19946;-57
2023/07/19 09:14:33;;;;;;;;;;;22.80;48.50;;;;;;5069526;28;19970;-55
2023/07/19 09:17:00;;;;;;;;;;;22.80;48.50;;;;;;5067779;28;19924;-56
2023/07/19 09:19:27;;;;;;;;;;;22.80;48.40;;;;;;5069114;28;19925;-56
2023/07/19 09:21:54;;;;;;;;;;;22.80;48.40;;;;;;5074850;28;19932;-55
2023/07/19 09:24:22;;;;;;;;;;;22.80;49.00;;;;;;5070193;28;19935;-56
2023/07/19 09:26:49;;;;;;;;;;;22.80;48.30;;;;;;5066610;28;19928;-58
2023/07/19 09:29:16;;;;;;;;;;;22.80;48.30;;;;;;5066670;28;19934;-55
2023/07/19 09:31:53;;;;;;;;;;;22.80;48.20;;;;;;5086845;28;19928;-56
2023/07/19 09:34:21;;;;;;;;;;;22.80;48.20;;;;;;5085280;28;20015;-55
2023/07/19 09:36:48;;;;;;;;;;;22.80;48.20;;;;;;5069162;28;19924;-55
2023/07/19 09:39:15;;;;;;;;;;;22.80;48.20;;;;;;5073337;28;19932;-56
2023/07/19 09:41:43;;;;;;;;;;;22.80;48.20;;;;;;5073814;28;19924;-56
2023/07/19 09:44:11;;;;;;;;;;;22.80;48.30;;;;;;5071978;28;19924;-55
2023/07/19 09:46:37;;;;;;;;;;;22.80;48.30;;;;;;5069297;28;19930;-57
2023/07/19 09:49:04;;;;;;;;;;;22.80;48.30;;;;;;5074389;28;19928;-57
2023/07/19 09:51:31;;;;;;;;;;;22.80;48.30;;;;;;5068988;28;19928;-56
2023/07/19 09:53:58;;;;;;;;;;;22.80;48.30;;;;;;5071274;28;19939;-57
2023/07/19 09:56:25;;;;;;;;;;;22.80;48.30;;;;;;5057490;28;19932;-56
2023/07/19 09:58:53;;;;;;;;;;;22.80;48.30;;;;;;5074599;28;19932;-56
2023/07/19 10:01:20;;;;;;;;;;;22.80;48.30;;;;;;5067932;28;20019;-56
2023/07/19 10:03:47;;;;;;;;;;;22.80;48.20;;;;;;5072005;28;19924;-58
2023/07/19 10:06:14;;;;;;;;;;;22.80;48.30;;;;;;5081348;28;19924;-56
2023/07/19 10:08:41;;;;;;;;;;;22.80;48.30;;;;;;5089635;28;20025;-58
2023/07/19 10:11:08;;;;;;;;;;;22.80;48.40;;;;;;5092275;28;19935;-57
2023/07/19 10:13:49;;;;;;;;;;;22.80;48.40;;;;;;5107461;28;19925;-56
2023/07/19 10:16:23;;;;;;;;;;;22.90;48.50;;;;;;5071031;28;19925;-54
2023/07/19 10:19:03;;;;;;;;;;;22.90;48.50;;;;;;5073250;28;19924;-56
2023/07/19 10:21:29;;;;;;;;;;;22.80;48.50;;;;;;5071969;28;19951;-56
2023/07/19 10:24:05;;;;;;;;;;;22.90;49.20;;;;;;5073854;28;20381;-56
2023/07/19 10:26:32;;;;;;;;;;;22.90;48.70;;;;;;5090116;28;19925;-56
2023/07/19 10:29:00;;;;;;;;;;;22.90;48.70;;;;;;5073732;28;19946;-56
2023/07/19 10:31:29;;;;;;;;;;;22.90;48.80;;;;;;5074482;28;19950;-52
2023/07/19 10:33:55;;;;;;;;;;;22.90;48.80;;;;;;5079525;28;19936;-55
2023/07/19 10:36:22;;;;;;;;;;;22.90;49.40;;;;;;5091433;28;20248;-56
2023/07/19 10:38:49;;;;;;;;;;;22.90;48.80;;;;;;5078668;28;19925;-56
2023/07/19 10:41:19;;;;;;;;;;;22.90;48.80;;;;;;5090618;28;20015;-56
2023/07/19 10:43:46;;;;;;;;;;;22.90;48.90;;;;;;5071504;28;19964;-55
2023/07/19 10:46:13;;;;;;;;;;;23.00;49.00;;;;;;5085925;28;19964;-54
2023/07/19 10:48:41;;;;;;;;;;;23.00;49.00;;;;;;5071558;28;19956;-56
2023/07/19 10:51:08;;;;;;;;;;;23.00;49.00;;;;;;5088430;28;19935;-55
2023/07/19 10:53:41;;;;;;;;;;;23.00;49.00;;;;;;5076157;28;20377;-56
2023/07/19 10:56:07;;;;;;;;;;;23.00;49.00;;;;;;5074259;28;19935;-57
2023/07/19 10:58:34;;;;;;;;;;;23.00;49.00;;;;;;5072707;28;20308;-54
2023/07/19 11:01:02;;;;;;;;;;;23.00;49.10;;;;;;5073561;28;20331;-56
2023/07/19 11:03:28;;;;;;;;;;;23.00;49.00;;;;;;5069616;28;19983;-57
2023/07/19 11:05:58;;;;;;;;;;;23.10;49.20;;;;;;5068635;28;19936;-55
2023/07/19 11:08:25;;;;;;;;;;;23.10;49.20;;;;;;5073998;28;19933;-56
2023/07/19 11:10:53;;;;;;;;;;;23.10;49.20;;;;;;5076709;28;20625;-58
2023/07/19 11:13:21;;;;;;;;;;;23.00;49.20;;;;;;5073515;28;19970;-56
2023/07/19 11:15:48;;;;;;;;;;;23.10;49.30;;;;;;5103401;28;19946;-55
2023/07/19 11:18:23;;;;;;;;;;;23.10;49.30;;;;;;5071220;28;19937;-57
2023/07/19 11:20:49;;;;;;;;;;;23.10;49.30;;;;;;5087329;28;19934;-55
2023/07/19 11:23:18;;;;;;;;;;;23.10;49.30;;;;;;5078359;28;19940;-57
2023/07/19 11:25:44;;;;;;;;;;;23.10;49.30;;;;;;5073746;28;20177;-55
2023/07/19 11:28:12;;;;;;;;;;;23.10;49.30;;;;;;5093346;28;19931;-53
2023/07/19 11:30:39;;;;;;;;;;;23.10;50.00;;;;;;5073325;28;19929;-54
2023/07/19 11:33:06;;;;;;;;;;;23.10;49.40;;;;;;5075847;28;19931;-56
2023/07/19 11:35:33;;;;;;;;;;;23.10;49.40;;;;;;5071805;28;19970;-56
2023/07/19 11:38:00;;;;;;;;;;;23.10;49.40;;;;;;5077160;28;20380;-56
2023/07/19 11:40:28;;;;;;;;;;;23.10;49.40;;;;;;5074150;28;20698;-56
2023/07/19 11:42:56;;;;;;;;;;;23.10;49.40;;;;;;5084647;28;20023;-56
2023/07/19 11:45:23;;;;;;;;;;;23.10;49.40;;;;;;5074202;28;19934;-56
2023/07/19 11:47:50;;;;;;;;;;;23.10;49.40;;;;;;5096256;28;19943;-56
2023/07/19 11:50:17;;;;;;;;;;;23.10;49.50;;;;;;5077323;28;19924;-55
2023/07/19 11:52:44;;;;;;;;;;;23.10;49.60;;;;;;5069914;28;19924;-53
2023/07/19 11:55:12;;;;;;;;;;;23.10;50.10;;;;;;5068910;28;19933;-56
2023/07/19 11:57:41;;;;;;;;;;;23.10;49.60;;;;;;5074590;28;19935;-55
2023/07/19 12:00:08;;;;;;;;;;;23.10;49.70;;;;;;5087863;28;19924;-56
2023/07/19 12:02:35;;;;;;;;;;;23.10;49.70;;;;;;5090532;28;19994;-56
2023/07/19 12:05:03;;;;;;;;;;;23.10;49.60;;;;;;5071457;28;19924;-55
2023/07/19 12:07:30;;;;;;;;;;;23.10;49.60;;;;;;5090378;28;19974;-56
2023/07/19 12:09:56;;;;;;;;;;;23.10;49.60;;;;;;5076050;28;19924;-56
2023/07/19 12:12:23;;;;;;;;;;;23.20;49.70;;;;;;5073006;28;19931;-55
2023/07/19 12:14:52;;;;;;;;;;;23.20;49.70;;;;;;5071934;28;19931;-58
2023/07/19 12:17:19;;;;;;;;;;;23.20;49.70;;;;;;5074269;28;19925;-56
2023/07/19 12:19:45;;;;;;;;;;;23.20;49.80;;;;;;5073402;28;20290;-56
2023/07/19 12:22:12;;;;;;;;;;;23.10;49.70;;;;;;5089153;28;19928;-58
2023/07/19 12:24:39;;;;;;;;;;;23.20;49.80;;;;;;5071395;28;20401;-54
2023/07/19 12:27:06;;;;;;;;;;;23.20;49.80;;;;;;5069656;28;19924;-56
2023/07/19 12:29:33;;;;;;;;;;;23.20;49.90;;;;;;5070598;28;20041;-55
2023/07/19 12:32:02;;;;;;;;;;;23.20;49.90;;;;;;5071642;28;19928;-55
2023/07/19 12:34:29;;;;;;;;;;;23.20;49.80;;;;;;5070380;28;20016;-53
2023/07/19 12:36:56;;;;;;;;;;;23.20;49.80;;;;;;5071961;28;19924;-55
2023/07/19 12:39:24;;;;;;;;;;;23.20;49.90;;;;;;5051769;28;19931;-57
2023/07/19 12:41:52;;;;;;;;;;;23.20;49.80;;;;;;5088216;28;19925;-55
2023/07/19 12:44:19;;;;;;;;;;;23.20;49.80;;;;;;5073189;28;19925;-56
2023/07/19 12:46:48;;;;;;;;;;;23.20;49.80;;;;;;5071142;28;19967;-57
2023/07/19 12:49:16;;;;;;;;;;;23.20;49.80;;;;;;5069885;28;19971;-54
2023/07/19 12:51:45;;;;;;;;;;;23.20;49.80;;;;;;5070433;28;19986;-56
2023/07/19 12:54:11;;;;;;;;;;;23.20;49.80;;;;;;5071363;28;19943;-55
2023/07/19 12:56:38;;;;;;;;;;;23.20;49.80;;;;;;5069158;28;19928;-55
2023/07/19 12:59:05;;;;;;;;;;;23.20;49.80;;;;;;5069413;28;19928;-56
2023/07/19 13:01:33;;;;;;;;;;;23.20;49.80;;;;;;5071085;28;19931;-54
2023/07/19 13:04:00;;;;;;;;;;;23.20;49.80;;;;;;5090147;28;19924;-57
2023/07/19 13:06:28;;;;;;;;;;;23.20;49.70;;;;;;5076859;28;19924;-57
2023/07/19 13:08:55;;;;;;;;;;;23.20;49.70;;;;;;5089372;28;20024;-56
2023/07/19 13:11:21;;;;;;;;;;;23.20;49.70;;;;;;5100659;28;19992;-55
2023/07/19 13:13:48;;;;;;;;;;;23.30;49.80;;;;;;5072097;28;19924;-56
2023/07/19 13:16:15;;;;;;;;;;;23.20;49.60;;;;;;5070512;28;19932;-57
2023/07/19 13:18:43;;;;;;;;;;;23.30;50.20;;;;;;5099401;28;19925;-57
2023/07/19 13:21:10;;;;;;;;;;;23.20;49.50;;;;;;5071327;28;19924;-57
2023/07/19 13:23:38;;;;;;;;;;;23.20;49.40;;;;;;5076791;28;19924;-57
2023/07/19 13:26:05;;;;;;;;;;;23.20;49.40;;;;;;5076324;28;19928;-56
2023/07/19 13:28:32;;;;;;;;;;;23.20;49.30;;;;;;5075978;28;19931;-57
2023/07/19 13:31:00;;;;;;;;;;;23.20;49.30;;;;;;5084463;28;20331;-55
2023/07/19 13:33:26;;;;;;;;;;;23.30;49.40;;;;;;5075043;28;19925;-56
2023/07/19 13:35:53;;;;;;;;;;;23.30;49.50;;;;;;5072705;28;19931;-57
2023/07/19 13:38:20;;;;;;;;;;;23.20;49.30;;;;;;5072437;28;19943;-57
2023/07/19 13:40:48;;;;;;;;;;;23.30;49.40;;;;;;5085738;28;19931;-56
2023/07/19 13:43:15;;;;;;;;;;;23.20;49.30;;;;;;5073416;28;19924;-57
2023/07/19 13:45:42;;;;;;;;;;;23.20;49.30;;;;;;5088630;28;19933;-57
2023/07/19 13:48:09;;;;;;;;;;;23.20;49.90;;;;;;5073602;28;20021;-57
2023/07/19 13:50:36;;;;;;;;;;;23.20;49.30;;;;;;5071220;28;19935;-57
2023/07/19 13:53:03;;;;;;;;;;;23.20;49.40;;;;;;5071901;28;19928;-56
2023/07/19 13:55:30;;;;;;;;;;;23.30;49.50;;;;;;5100074;28;19924;-57
2023/07/19 13:57:58;;;;;;;;;;;23.30;49.50;;;;;;5071750;28;19970;-57
2023/07/19 14:00:25;;;;;;;;;;;23.30;50.00;;;;;;5072077;28;20317;-57
2023/07/19 14:02:52;;;;;;;;;;;23.20;49.40;;;;;;5055414;28;19924;-57
2023/07/19 14:05:19;;;;;;;;;;;23.30;49.50;;;;;;5071443;28;19924;-57
2023/07/19 14:07:46;;;;;;;;;;;23.30;49.50;;;;;;5088825;28;19979;-57
2023/07/19 14:10:13;;;;;;;;;;;23.20;49.40;;;;;;5088133;28;19935;-58
2023/07/19 14:12:40;;;;;;;;;;;23.30;49.60;;;;;;5071659;28;19933;-58
2023/07/19 14:15:09;;;;;;;;;;;23.20;49.60;;;;;;5071775;28;20054;-57